createdAt,value
2023-03-21T00:00:48.050Z,97380.44
2023-03-21T00:03:15.958Z,97379.31
2023-03-21T00:05:53.496Z,97375.88
2023-03-21T00:08:24.995Z,97370.69
2023-03-21T00:11:12.973Z,97373.25
2023-03-21T00:13:45.448Z,97366.06
2023-03-21T00:16:23.941Z,97363.56
2023-03-21T00:18:59.680Z,97363.81
2023-03-21T00:24:15.620Z,97363.78
2023-03-21T00:26:45.213Z,97361.00
2023-03-21T00:29:11.868Z,97358.50
2023-03-21T00:31:38.596Z,97372.28
2023-03-21T00:34:05.350Z,97366.19
2023-03-21T00:36:32.550Z,97363.38
2023-03-21T00:39:00.952Z,97354.72
2023-03-21T00:41:42.427Z,97365.44
2023-03-21T00:44:13.940Z,97361.28
2023-03-21T00:46:54.554Z,97360.34
2023-03-21T00:49:27.951Z,97369.69
2023-03-21T00:52:02.280Z,97370.75
2023-03-21T00:54:32.032Z,97361.59
2023-03-21T00:56:58.722Z,97351.59
2023-03-21T00:59:28.184Z,97366.53
2023-03-21T01:02:00.030Z,97367.19
2023-03-21T01:04:28.381Z,97363.09
2023-03-21T01:06:57.731Z,97374.06
2023-03-21T01:09:25.549Z,97359.09
2023-03-21T01:11:53.214Z,97359.16
2023-03-21T01:14:23.726Z,97364.25
2023-03-21T01:16:52.991Z,97356.59
2023-03-21T01:19:30.957Z,97352.56
2023-03-21T01:22:04.752Z,97356.41
2023-03-21T01:24:32.454Z,97349.84
2023-03-21T01:27:02.762Z,97357.50
2023-03-21T01:29:29.411Z,97363.34
2023-03-21T01:31:56.098Z,97356.72
2023-03-21T01:34:25.216Z,97358.69
2023-03-21T01:36:52.132Z,97356.06
2023-03-21T01:39:18.736Z,97365.97
2023-03-21T01:41:45.567Z,97368.53
2023-03-21T01:44:17.996Z,97365.03
2023-03-21T01:47:09.851Z,97362.28
2023-03-21T01:49:41.028Z,97360.63
2023-03-21T01:52:23.549Z,97359.97
2023-03-21T01:54:57.272Z,97367.19
2023-03-21T01:57:49.498Z,97365.16
2023-03-21T02:00:23.485Z,97363.47
2023-03-21T02:02:58.198Z,97360.47
2023-03-21T02:05:39.717Z,97352.31
2023-03-21T02:08:06.418Z,97363.84
2023-03-21T02:10:34.404Z,97363.84
2023-03-21T02:13:10.324Z,97364.88
2023-03-21T02:15:47.055Z,97367.06
2023-03-21T02:18:27.071Z,97368.66
2023-03-21T02:21:19.402Z,97368.84
2023-03-21T02:24:13.743Z,97366.38
2023-03-21T02:27:04.126Z,97369.13
2023-03-21T02:29:54.250Z,97361.56
2023-03-21T02:33:06.442Z,97361.28
2023-03-21T02:35:54.554Z,97368.53
2023-03-21T02:38:38.973Z,97372.03
2023-03-21T02:41:40.320Z,97364.78
2023-03-21T02:44:29.000Z,97361.19
2023-03-21T02:47:05.481Z,97374.34
2023-03-21T02:49:38.444Z,97368.13
2023-03-21T02:52:15.599Z,97375.59
2023-03-21T02:54:49.037Z,97375.38
2023-03-21T02:57:24.055Z,97380.03
2023-03-21T03:00:00.339Z,97378.44
2023-03-21T03:02:32.090Z,97380.03
2023-03-21T03:05:00.691Z,97383.31
2023-03-21T03:08:01.995Z,97383.25
2023-03-21T03:10:52.240Z,97381.84
2023-03-21T03:13:54.032Z,97384.75
2023-03-21T03:16:57.572Z,97378.13
2023-03-21T03:19:44.626Z,97372.44
2023-03-21T03:22:24.976Z,97380.97
2023-03-21T03:25:19.715Z,97373.06
2023-03-21T03:28:03.036Z,97375.81
2023-03-21T03:30:41.239Z,97379.28
2023-03-21T03:33:17.222Z,97381.91
2023-03-21T03:35:59.038Z,97374.88
2023-03-21T03:38:32.767Z,97379.91
2023-03-21T03:41:10.368Z,97376.66
2023-03-21T03:43:49.907Z,97384.91
2023-03-21T03:46:30.480Z,97380.56
2023-03-21T03:49:02.431Z,97383.19
2023-03-21T03:51:46.734Z,97383.25
2023-03-21T03:54:20.236Z,97384.97
2023-03-21T03:56:49.960Z,97383.00
2023-03-21T03:59:23.500Z,97366.28
2023-03-21T04:01:51.635Z,97375.59
2023-03-21T04:04:18.413Z,97377.09
2023-03-21T04:06:53.060Z,97378.53
2023-03-21T04:09:26.760Z,97382.00
2023-03-21T04:11:58.576Z,97378.84
2023-03-21T04:14:35.679Z,97385.38
2023-03-21T04:17:08.848Z,97382.41
2023-03-21T04:19:36.180Z,97376.03
2023-03-21T04:22:05.525Z,97373.63
2023-03-21T04:24:33.985Z,97374.78
2023-03-21T04:27:02.136Z,97380.56
2023-03-21T04:29:29.888Z,97376.38
2023-03-21T04:31:59.717Z,97380.41
2023-03-21T04:34:30.591Z,97383.97
2023-03-21T04:36:59.962Z,97383.78
2023-03-21T04:39:31.657Z,97381.63
2023-03-21T04:42:00.348Z,97393.19
2023-03-21T04:44:29.844Z,97393.91
2023-03-21T04:46:56.582Z,97399.19
2023-03-21T04:49:23.137Z,97391.16
2023-03-21T04:51:58.235Z,97397.38
2023-03-21T04:54:26.632Z,97395.56
2023-03-21T04:56:53.436Z,97400.00
2023-03-21T04:59:21.522Z,97405.34
2023-03-21T05:01:50.103Z,97396.56
2023-03-21T05:04:19.282Z,97401.06
2023-03-21T05:06:46.459Z,97399.13
2023-03-21T05:09:14.049Z,97403.53
2023-03-21T05:11:41.304Z,97404.91
2023-03-21T05:14:10.578Z,97411.19
2023-03-21T05:16:48.819Z,97406.28
2023-03-21T05:19:24.474Z,97414.16
2023-03-21T05:21:58.058Z,97413.81
2023-03-21T05:24:24.808Z,97415.34
2023-03-21T05:26:52.390Z,97403.88
2023-03-21T05:29:22.653Z,97409.94
2023-03-21T05:31:49.368Z,97404.84
2023-03-21T05:34:16.195Z,97411.03
2023-03-21T05:36:42.929Z,97414.53
2023-03-21T05:39:09.690Z,97413.69
2023-03-21T05:41:36.364Z,97414.84
2023-03-21T05:44:03.181Z,97415.78
2023-03-21T05:46:29.785Z,97410.50
2023-03-21T05:48:56.484Z,97415.59
2023-03-21T05:51:23.358Z,97412.00
2023-03-21T05:53:50.034Z,97411.59
2023-03-21T05:56:16.760Z,97405.41
2023-03-21T05:58:45.981Z,97414.97
2023-03-21T06:01:12.693Z,97404.94
2023-03-21T06:03:39.382Z,97410.00
2023-03-21T06:06:08.821Z,97408.13
2023-03-21T06:08:38.413Z,97409.25
2023-03-21T06:11:23.227Z,97408.06
2023-03-21T06:13:50.221Z,97407.06
2023-03-21T06:16:16.975Z,97411.91
2023-03-21T06:18:51.340Z,97408.38
2023-03-21T06:21:17.855Z,97419.34
2023-03-21T06:23:44.435Z,97409.59
2023-03-21T06:26:11.531Z,97419.09
2023-03-21T06:28:40.896Z,97402.41
2023-03-21T06:31:10.006Z,97407.31
2023-03-21T06:33:39.865Z,97404.41
2023-03-21T06:36:07.019Z,97415.59
2023-03-21T06:38:33.820Z,97413.22
2023-03-21T06:41:04.766Z,97414.94
2023-03-21T06:43:32.174Z,97420.72
2023-03-21T06:46:02.369Z,97413.78
2023-03-21T06:48:31.688Z,97427.78
2023-03-21T06:51:04.971Z,97420.81
2023-03-21T06:53:34.207Z,97415.19
2023-03-21T06:56:01.769Z,97414.09
2023-03-21T06:58:28.493Z,97415.13
2023-03-21T07:00:55.186Z,97425.59
2023-03-21T07:03:27.197Z,97426.31
2023-03-21T07:05:56.219Z,97426.06
2023-03-21T07:08:22.810Z,97430.94
2023-03-21T07:10:49.676Z,97422.06
2023-03-21T07:13:20.194Z,97426.78
2023-03-21T07:15:47.041Z,97421.59
2023-03-21T07:18:18.753Z,97425.09
2023-03-21T07:20:54.760Z,97431.88
2023-03-21T07:23:26.925Z,97437.69
2023-03-21T07:25:54.572Z,97433.00
2023-03-21T07:28:24.525Z,97435.91
2023-03-21T07:30:57.182Z,97439.03
2023-03-21T07:33:25.482Z,97441.56
2023-03-21T07:35:54.334Z,97434.47
2023-03-21T07:38:25.148Z,97432.72
2023-03-21T07:40:57.728Z,97436.69
2023-03-21T07:43:24.466Z,97429.28
2023-03-21T07:45:51.171Z,97430.50
2023-03-21T07:48:19.094Z,97429.47
2023-03-21T07:50:49.655Z,97430.53
2023-03-21T07:53:18.464Z,97426.22
2023-03-21T07:55:57.541Z,97422.22
2023-03-21T07:58:28.615Z,97429.13
2023-03-21T08:01:03.982Z,97428.19
2023-03-21T08:03:32.788Z,97428.19
2023-03-21T08:06:01.525Z,97422.28
2023-03-21T08:08:28.216Z,97420.34
2023-03-21T08:10:55.310Z,97426.03
2023-03-21T08:13:22.093Z,97429.13
2023-03-21T08:15:48.854Z,97437.03
2023-03-21T08:18:15.544Z,97435.66
2023-03-21T08:20:42.315Z,97439.44
2023-03-21T08:23:09.031Z,97426.69
2023-03-21T08:25:35.910Z,97428.03
2023-03-21T08:28:04.090Z,97423.66
2023-03-21T08:30:30.926Z,97427.94
2023-03-21T08:33:01.367Z,97424.66
2023-03-21T08:35:29.372Z,97424.84
2023-03-21T08:37:56.038Z,97427.28
2023-03-21T08:40:25.982Z,97423.00
2023-03-21T08:42:53.003Z,97426.09
2023-03-21T08:45:19.831Z,97427.16
2023-03-21T08:47:53.924Z,97428.19
2023-03-21T08:50:26.810Z,97432.03
2023-03-21T08:52:53.557Z,97422.88
2023-03-21T08:55:20.536Z,97430.25
2023-03-21T08:57:51.454Z,97423.63
2023-03-21T09:00:20.791Z,97426.78
2023-03-21T09:02:52.521Z,97423.97
2023-03-21T09:05:19.677Z,97417.50
2023-03-21T09:07:46.619Z,97420.84
2023-03-21T09:10:22.087Z,97418.84
2023-03-21T09:12:56.199Z,97428.72
2023-03-21T09:15:24.989Z,97414.88
2023-03-21T09:17:54.545Z,97424.28
2023-03-21T09:20:30.629Z,97421.00
2023-03-21T09:22:58.360Z,97417.44
2023-03-21T09:25:25.532Z,97425.38
2023-03-21T09:27:53.834Z,97416.41
2023-03-21T09:30:24.294Z,97418.03
2023-03-21T09:32:56.841Z,97419.31
2023-03-21T09:35:27.571Z,97424.19
2023-03-21T09:37:54.995Z,97415.50
2023-03-21T09:40:55.977Z,97416.06
2023-03-21T09:43:56.016Z,97424.97
2023-03-21T09:46:52.467Z,97421.03
2023-03-21T09:49:28.646Z,97418.22
2023-03-21T09:51:56.741Z,97418.00
2023-03-21T09:54:30.357Z,97417.44
2023-03-21T09:57:04.567Z,97417.13
2023-03-21T09:59:42.321Z,97420.00
2023-03-21T10:02:42.032Z,97421.91
2023-03-21T10:05:22.417Z,97420.22
2023-03-21T10:07:58.565Z,97414.34
2023-03-21T10:10:30.116Z,97421.38
2023-03-21T10:13:04.685Z,97414.31
2023-03-21T10:15:31.520Z,97414.56
2023-03-21T10:18:05.040Z,97406.84
2023-03-21T10:20:38.940Z,97403.56
2023-03-21T10:23:11.470Z,97404.78
2023-03-21T10:25:49.964Z,97406.38
2023-03-21T10:28:24.184Z,97396.06
2023-03-21T10:30:53.582Z,97393.66
2023-03-21T10:33:42.678Z,97395.50
2023-03-21T10:36:14.073Z,97398.72
2023-03-21T10:38:52.353Z,97401.63
2023-03-21T10:41:21.350Z,97392.50
2023-03-21T10:44:09.111Z,97388.19
2023-03-21T10:46:36.402Z,97389.25
2023-03-21T10:49:03.501Z,97383.94
2023-03-21T10:51:35.609Z,97388.03
2023-03-21T10:54:16.494Z,97375.72
2023-03-21T10:56:59.949Z,97376.78
2023-03-21T10:59:34.625Z,97377.09
2023-03-21T11:02:04.740Z,97374.53
2023-03-21T11:04:31.933Z,97379.84
2023-03-21T11:07:08.850Z,97379.56
2023-03-21T11:09:57.572Z,97376.22
2023-03-21T11:12:34.973Z,97370.97
2023-03-21T11:15:30.790Z,97364.25
2023-03-21T11:17:59.883Z,97374.44
2023-03-21T11:20:35.308Z,97367.38
2023-03-21T11:23:03.449Z,97355.25
2023-03-21T11:25:38.175Z,97365.31
2023-03-21T11:28:08.680Z,97354.94
2023-03-21T11:30:38.079Z,97353.94
2023-03-21T11:33:07.075Z,97355.06
2023-03-21T11:35:40.814Z,97351.00
2023-03-21T11:38:25.175Z,97351.16
2023-03-21T11:40:57.768Z,97335.69
2023-03-21T11:43:30.606Z,97337.78
2023-03-21T11:46:01.433Z,97339.94
2023-03-21T11:48:28.851Z,97331.34
2023-03-21T11:51:04.749Z,97324.78
2023-03-21T11:53:32.890Z,97322.56
2023-03-21T11:55:59.369Z,97325.50
2023-03-21T11:58:30.231Z,97321.03
2023-03-21T12:01:06.233Z,97319.09
2023-03-21T12:03:47.093Z,97311.16
2023-03-21T12:06:29.175Z,97311.16
2023-03-21T12:09:02.213Z,97309.03
2023-03-21T12:11:34.248Z,97300.97
2023-03-21T12:14:11.272Z,97299.81
2023-03-21T12:16:38.638Z,97301.59
2023-03-21T12:19:46.997Z,97296.59
2023-03-21T12:22:13.621Z,97283.75
2023-03-21T12:25:06.632Z,97288.53
2023-03-21T12:27:48.662Z,97292.00
2023-03-21T12:30:31.414Z,97293.91
2023-03-21T12:33:04.498Z,97291.47
2023-03-21T12:35:52.293Z,97285.69
2023-03-21T12:38:39.104Z,97287.94
2023-03-21T12:41:14.344Z,97276.94
2023-03-21T12:43:57.061Z,97273.50
2023-03-21T12:46:30.022Z,97268.50
2023-03-21T12:48:59.666Z,97266.50
2023-03-21T12:51:36.819Z,97266.16
2023-03-21T12:54:08.338Z,97255.03
2023-03-21T12:56:39.956Z,97262.38
2023-03-21T12:59:12.542Z,97257.91
2023-03-21T13:01:40.203Z,97250.09
2023-03-21T13:04:21.881Z,97249.28
2023-03-21T13:06:51.697Z,97234.72
2023-03-21T13:09:28.515Z,97234.00
2023-03-21T13:12:07.905Z,97234.38
2023-03-21T13:14:41.244Z,97225.84
2023-03-21T13:17:17.048Z,97225.69
2023-03-21T13:19:43.590Z,97224.06
2023-03-21T13:22:22.524Z,97228.56
2023-03-21T13:24:50.389Z,97221.00
2023-03-21T13:27:32.098Z,97221.63
2023-03-21T13:30:09.316Z,97221.75
2023-03-21T13:32:39.399Z,97214.09
2023-03-21T13:35:09.750Z,97216.63
2023-03-21T13:37:41.043Z,97213.09
2023-03-21T13:40:20.052Z,97210.31
2023-03-21T13:42:55.100Z,97213.81
2023-03-21T13:45:46.707Z,97211.06
2023-03-21T13:48:46.492Z,97208.50
2023-03-21T13:51:37.689Z,97211.16
2023-03-21T13:54:18.820Z,97198.19
2023-03-21T13:56:52.679Z,97204.53
2023-03-21T13:59:40.210Z,97200.59
2023-03-21T14:02:36.293Z,97194.16
2023-03-21T14:05:25.500Z,97188.81
2023-03-21T14:08:12.624Z,97185.22
2023-03-21T14:10:45.190Z,97193.16
2023-03-21T14:13:20.402Z,97184.50
2023-03-21T14:15:56.253Z,97192.38
2023-03-21T14:18:51.659Z,97190.72
2023-03-21T14:21:24.780Z,97188.19
2023-03-21T14:24:12.700Z,97177.53
2023-03-21T14:26:48.780Z,97183.25
2023-03-21T14:29:36.235Z,97185.09
2023-03-21T14:32:07.063Z,97185.53
2023-03-21T14:34:38.969Z,97187.94
2023-03-21T14:37:10.971Z,97191.22
2023-03-21T14:39:40.707Z,97185.56
2023-03-21T14:42:14.974Z,97193.41
2023-03-21T14:45:21.084Z,97200.38
2023-03-21T14:48:07.538Z,97199.88
2023-03-21T14:50:50.873Z,97190.22
2023-03-21T14:53:25.884Z,97189.66
2023-03-21T14:55:55.561Z,97192.19
2023-03-21T14:58:26.330Z,97188.38
2023-03-21T15:00:56.286Z,97183.22
2023-03-21T15:03:28.535Z,97177.56
2023-03-21T15:05:59.678Z,97171.25
2023-03-21T15:08:32.213Z,97168.84
2023-03-21T15:11:07.220Z,97171.34
2023-03-21T15:13:52.305Z,97168.28
2023-03-21T15:16:20.068Z,97167.97
2023-03-21T15:18:47.443Z,97164.38
2023-03-21T15:21:20.177Z,97170.88
2023-03-21T15:23:54.019Z,97176.66
2023-03-21T15:26:31.933Z,97177.47
2023-03-21T15:29:00.501Z,97181.88
2023-03-21T15:31:46.862Z,97179.88
2023-03-21T15:34:24.201Z,97180.75
2023-03-21T15:36:57.578Z,97182.66
2023-03-21T15:39:26.677Z,97183.34
2023-03-21T15:42:02.011Z,97189.72
2023-03-21T15:44:33.694Z,97189.38
2023-03-21T15:47:00.770Z,97189.72
2023-03-21T15:49:34.203Z,97190.28
2023-03-21T15:52:24.007Z,97196.06
2023-03-21T15:54:57.163Z,97187.50
2023-03-21T15:57:32.909Z,97193.38
2023-03-21T16:00:21.686Z,97201.19
2023-03-21T16:02:55.219Z,97201.28
2023-03-21T16:05:30.658Z,97203.84
2023-03-21T16:08:20.203Z,97204.88
2023-03-21T16:10:51.423Z,97203.34
2023-03-21T16:13:18.659Z,97210.19
2023-03-21T16:15:51.115Z,97205.50
2023-03-21T16:18:17.645Z,97212.09
2023-03-21T16:20:48.904Z,97215.75
2023-03-21T16:23:16.328Z,97219.53
2023-03-21T16:25:44.309Z,97215.19
2023-03-21T16:28:17.495Z,97216.47
2023-03-21T16:30:49.646Z,97221.00
2023-03-21T16:33:24.482Z,97215.34
2023-03-21T16:36:01.975Z,97223.81
2023-03-21T16:38:28.710Z,97219.81
2023-03-21T16:40:55.807Z,97224.50
2023-03-21T16:43:24.288Z,97221.84
2023-03-21T16:45:51.461Z,97226.41
2023-03-21T16:48:21.786Z,97225.00
2023-03-21T16:50:48.941Z,97223.88
2023-03-21T16:53:17.215Z,97233.78
2023-03-21T16:55:44.141Z,97238.44
2023-03-21T16:58:16.951Z,97235.47
2023-03-21T17:00:43.752Z,97238.50
2023-03-21T17:03:19.318Z,97234.00
2023-03-21T17:05:46.613Z,97232.28
2023-03-21T17:08:18.897Z,97229.69
2023-03-21T17:10:46.871Z,97236.00
2023-03-21T17:13:16.098Z,97237.78
2023-03-21T17:15:42.708Z,97242.13
2023-03-21T17:18:14.196Z,97241.28
2023-03-21T17:20:45.398Z,97246.03
2023-03-21T17:23:12.061Z,97245.88
2023-03-21T17:25:39.103Z,97250.44
2023-03-21T17:28:08.747Z,97254.03
2023-03-21T17:30:39.274Z,97262.13
2023-03-21T17:33:08.717Z,97261.72
2023-03-21T17:35:35.621Z,97270.56
2023-03-21T17:38:02.462Z,97272.69
2023-03-21T17:40:31.627Z,97273.13
2023-03-21T17:43:02.150Z,97275.13
2023-03-21T17:45:29.788Z,97278.59
2023-03-21T17:47:58.385Z,97284.06
2023-03-21T17:50:27.417Z,97291.66
2023-03-21T17:52:56.585Z,97304.81
2023-03-21T17:55:23.864Z,97319.44
2023-03-21T17:57:58.136Z,97335.25
2023-03-21T18:00:29.819Z,97318.28
2023-03-21T18:02:58.784Z,97314.97
2023-03-21T18:05:33.817Z,97318.56
2023-03-21T18:08:10.128Z,97307.59
2023-03-21T18:10:41.456Z,97318.38
2023-03-21T18:13:18.910Z,97317.09
2023-03-21T18:15:48.312Z,97313.91
2023-03-21T18:18:18.155Z,97312.91
2023-03-21T18:20:52.214Z,97328.09
2023-03-21T18:23:22.028Z,97325.16
2023-03-21T18:25:49.030Z,97324.16
2023-03-21T18:28:19.398Z,97325.59
2023-03-21T18:33:42.281Z,97324.94
2023-03-21T18:36:15.398Z,97324.97
2023-03-21T18:38:43.153Z,97333.59
2023-03-21T18:41:36.805Z,97318.91
2023-03-21T18:44:16.671Z,97323.41
2023-03-21T18:46:47.453Z,97316.69
2023-03-21T18:49:58.940Z,97314.97
2023-03-21T18:52:08.406Z,97311.25
2023-03-21T18:54:36.751Z,97323.31
2023-03-21T18:59:54.279Z,97323.66
2023-03-21T19:02:21.374Z,97322.94
2023-03-21T19:04:51.271Z,97315.22
2023-03-21T19:07:18.180Z,97316.75
2023-03-21T19:10:15.961Z,97313.00
2023-03-21T19:12:45.238Z,97312.19
2023-03-21T19:15:17.955Z,97318.53
2023-03-21T19:18:30.329Z,97312.34
2023-03-21T19:20:37.963Z,97306.88
2023-03-21T19:23:10.161Z,97308.47
2023-03-21T19:25:38.031Z,97315.53
2023-03-21T19:28:07.187Z,97307.44
2023-03-21T19:30:37.085Z,97308.00
2023-03-21T19:33:04.396Z,97304.38
2023-03-21T19:35:31.503Z,97299.09
2023-03-21T19:38:05.683Z,97301.91
2023-03-21T19:40:35.193Z,97296.81
2023-03-21T19:43:28.554Z,97285.63
2023-03-21T19:46:03.101Z,97287.41
2023-03-21T19:48:32.590Z,97292.81
2023-03-21T19:51:36.497Z,97294.50
2023-03-21T19:53:56.460Z,97292.09
2023-03-21T19:56:31.415Z,97293.09
2023-03-21T19:58:59.582Z,97298.31
2023-03-21T20:01:30.457Z,97300.63
2023-03-21T20:03:57.074Z,97294.19
2023-03-21T20:06:27.363Z,97300.63
2023-03-21T20:11:43.767Z,97300.94
2023-03-21T20:14:12.829Z,97299.28
2023-03-21T20:16:43.238Z,97294.56
2023-03-21T20:19:12.747Z,97289.66
2023-03-21T20:21:49.217Z,97287.41
2023-03-21T20:24:20.173Z,97291.13
2023-03-21T20:26:47.160Z,97294.75
2023-03-21T20:30:07.626Z,97286.84
2023-03-21T20:32:00.816Z,97289.47
2023-03-21T20:34:28.795Z,97281.56
2023-03-21T20:36:58.144Z,97287.13
2023-03-21T20:39:24.946Z,97296.06
2023-03-21T20:41:54.744Z,97292.94
2023-03-21T20:47:42.799Z,97292.72
2023-03-21T20:50:13.866Z,97288.97
2023-03-21T20:53:05.468Z,97289.91
2023-03-21T20:55:29.521Z,97291.28
2023-03-21T20:57:56.242Z,97292.34
2023-03-21T21:00:22.905Z,97283.38
2023-03-21T21:02:50.294Z,97292.06
2023-03-21T21:05:33.734Z,97294.13
2023-03-21T21:08:01.359Z,97293.78
2023-03-21T21:10:30.962Z,97296.53
2023-03-21T21:13:00.505Z,97291.09
2023-03-21T21:15:27.215Z,97307.41
2023-03-21T21:18:06.537Z,97299.00
2023-03-21T21:20:36.733Z,97297.69
2023-03-21T21:23:04.305Z,97303.22
2023-03-21T21:25:38.272Z,97303.22
2023-03-21T21:28:09.423Z,97298.94
2023-03-21T21:30:41.472Z,97301.63
2023-03-21T21:33:09.541Z,97300.88
2023-03-21T21:35:36.941Z,97300.00
2023-03-21T21:38:04.483Z,97301.31
2023-03-21T21:40:31.082Z,97302.28
2023-03-21T21:43:03.626Z,97299.69
2023-03-21T21:45:33.268Z,97305.78
2023-03-21T21:48:12.706Z,97313.97
2023-03-21T21:50:45.542Z,97311.47
2023-03-21T21:53:12.250Z,97309.94
2023-03-21T21:56:16.592Z,97318.69
2023-03-21T21:58:51.123Z,97310.38
2023-03-21T22:01:17.824Z,97316.81
2023-03-21T22:03:48.444Z,97306.63
2023-03-21T22:06:16.085Z,97310.19
2023-03-21T22:08:46.963Z,97308.41
2023-03-21T22:11:22.323Z,97312.00
2023-03-21T22:13:49.184Z,97314.53
2023-03-21T22:16:16.148Z,97313.75
2023-03-21T22:18:43.265Z,97312.09
2023-03-21T22:21:10.369Z,97313.34
2023-03-21T22:23:37.104Z,97317.94
2023-03-21T22:26:03.848Z,97311.25
2023-03-21T22:28:34.635Z,97313.81
2023-03-21T22:31:14.423Z,97322.00
2023-03-21T22:33:41.920Z,97320.31
2023-03-21T22:36:09.202Z,97316.22
2023-03-21T22:38:40.226Z,97324.22
2023-03-21T22:41:12.837Z,97316.47
2023-03-21T22:43:39.404Z,97330.50
2023-03-21T22:46:06.562Z,97324.63
2023-03-21T22:48:33.471Z,97324.81
2023-03-21T22:51:05.144Z,97327.13
2023-03-21T22:53:31.911Z,97326.56
2023-03-21T22:55:58.531Z,97326.34
2023-03-21T22:58:25.029Z,97323.97
2023-03-21T23:00:51.967Z,97325.91
2023-03-21T23:03:21.109Z,97325.47
2023-03-21T23:05:47.689Z,97333.56
2023-03-21T23:08:14.328Z,97325.94
2023-03-21T23:10:45.881Z,97326.81
2023-03-21T23:13:14.820Z,97326.59
2023-03-21T23:15:41.857Z,97321.47
2023-03-21T23:18:11.500Z,97314.88
2023-03-21T23:20:39.483Z,97317.75
2023-03-21T23:23:08.435Z,97314.25
2023-03-21T23:25:38.362Z,97316.97
2023-03-21T23:28:08.180Z,97312.94
2023-03-21T23:30:39.685Z,97318.28
2023-03-21T23:33:08.550Z,97315.84
2023-03-21T23:35:38.372Z,97314.41
2023-03-21T23:38:06.003Z,97317.88
2023-03-21T23:40:32.775Z,97327.44
2023-03-21T23:42:59.730Z,97317.19
2023-03-21T23:45:29.404Z,97312.19
2023-03-21T23:47:56.086Z,97316.03
2023-03-21T23:50:25.345Z,97319.88
2023-03-21T23:52:51.933Z,97311.25
2023-03-21T23:55:20.972Z,97313.59
2023-03-21T23:57:55.230Z,97313.41
